Wemyss Bay, United Kingdom
Current Conditions -  °F | °C
As of 11:20 PM on Wednesday 17 Dec 2014 (Local Time) from EGPF Reporting Station
Overcast Overcast  
Wind Chill: 43°   Ceiling: 1200
Heat Index: 48°   Visibility: 6mi
Dew Point: 46°   Wind: 14mph
Humidity: 93%   Direction: 260°W
Pressure: 29.47"   Gusts: NA
Location:  55.88°N, 4.89°W
Report Text: EGPF 172320Z AUTO 26012KT 9999 BKN012 OVC036 09/08 Q0998
Loading
Personal Weather Stations






























Interactive Weather Map New forecast layout! Learn more

10-Day Weather Forecast

Advertisements
Track Severe Weather on mobile